Time;durP1;ratioP1;P1;durP2;ratioP2;P2;SDS_P1;SDS_P2;PMS_P1;PMS_P2;Temp;Humidity;BMP_temperature;BMP_pressure;BME280_temperature;BME280_humidity;BME280_pressure;Samples;Min_cycle;Max_cycle;Signal;HPM_P1;HPM_P2
2022/08/31 00:06:20;;;;;;;3.50;2.90;;;;;;;;;;5111201;28;20210;-62
2022/08/31 00:08:48;;;;;;;3.43;2.60;;;;;;;;;;5107835;28;20237;-66
2022/08/31 00:11:26;;;;;;;2.63;2.43;;;;;;;;;;5111431;28;20214;-65
2022/08/31 00:13:55;;;;;;;2.93;2.63;;;;;;;;;;5108432;28;20250;-65
2022/08/31 00:16:24;;;;;;;3.97;3.30;;;;;;;;;;5120491;27;20331;-66
2022/08/31 00:18:52;;;;;;;3.80;2.50;;;;;;;;;;5118251;28;20265;-67
2022/08/31 00:21:21;;;;;;;2.87;2.67;;;;;;;;;;5115958;27;20239;-65
2022/08/31 00:23:50;;;;;;;2.90;2.67;;;;;;;;;;5114662;28;20323;-66
2022/08/31 00:29:43;;;;;;;2.57;2.37;;;;;;;;;;5081444;28;20631;-66
2022/08/31 00:32:11;;;;;;;973.07;400.87;;;;;;;;;;5100164;28;20209;-65
2022/08/31 00:34:39;;;;;;;727.37;526.33;;;;;;;;;;5111062;28;20253;-67
2022/08/31 00:37:10;;;;;;;214.37;142.07;;;;;;;;;;5117247;28;20214;-62
2022/08/31 00:39:38;;;;;;;37.20;27.97;;;;;;;;;;5117321;28;20198;-62
2022/08/31 00:42:07;;;;;;;18.13;11.47;;;;;;;;;;5119193;28;20245;-62
2022/08/31 00:44:35;;;;;;;9.40;6.50;;;;;;;;;;5108336;28;20263;-60
2022/08/31 00:47:04;;;;;;;16.43;12.63;;;;;;;;;;5107445;28;20322;-60
2022/08/31 00:49:34;;;;;;;8.83;6.30;;;;;;;;;;5109543;28;20241;-61
2022/08/31 00:52:04;;;;;;;13.20;9.00;;;;;;;;;;5116992;28;20281;-61
2022/08/31 00:54:34;;;;;;;7.80;4.87;;;;;;;;;;5114792;28;20273;-60
2022/08/31 00:57:02;;;;;;;5.40;4.00;;;;;;;;;;5117405;27;20208;-61
2022/08/31 00:59:30;;;;;;;5.47;3.53;;;;;;;;;;5117321;27;20235;-61
2022/08/31 01:01:59;;;;;;;2.63;2.43;;;;;;;;;;5112537;27;20646;-60
2022/08/31 01:04:29;;;;;;;3.60;3.30;;;;;;;;;;5112858;28;20323;-61
2022/08/31 01:06:57;;;;;;;4.83;4.33;;;;;;;;;;5119208;27;20231;-60
2022/08/31 01:09:26;;;;;;;7.37;4.67;;;;;;;;;;5118013;28;20541;-60
2022/08/31 01:11:54;;;;;;;8.30;4.33;;;;;;;;;;5115257;28;20673;-61
2022/08/31 01:14:22;;;;;;;2.80;2.60;;;;;;;;;;5117691;28;20661;-60
2022/08/31 01:16:52;;;;;;;2.40;2.20;;;;;;;;;;5108514;28;20213;-62
2022/08/31 01:19:24;;;;;;;4.77;3.23;;;;;;;;;;5113111;28;20236;-60
2022/08/31 01:21:57;;;;;;;3.50;3.20;;;;;;;;;;5117152;28;20637;-62
2022/08/31 01:24:26;;;;;;;4.93;3.70;;;;;;;;;;5108520;28;20258;-62
2022/08/31 01:26:54;;;;;;;4.37;3.50;;;;;;;;;;5119729;27;20206;-60
2022/08/31 01:29:22;;;;;;;4.70;3.20;;;;;;;;;;5119584;28;20207;-60
2022/08/31 01:31:50;;;;;;;6.13;3.33;;;;;;;;;;5113130;28;20223;-60
2022/08/31 01:34:18;;;;;;;2.80;2.47;;;;;;;;;;5106681;28;20219;-60
2022/08/31 01:36:48;;;;;;;5.63;2.90;;;;;;;;;;5119342;28;20209;-60
2022/08/31 01:39:15;;;;;;;3.00;2.57;;;;;;;;;;5113223;28;20202;-62
2022/08/31 01:41:45;;;;;;;3.03;2.83;;;;;;;;;;5118878;27;20243;-60
2022/08/31 01:44:14;;;;;;;3.93;2.47;;;;;;;;;;5108409;28;20253;-60
2022/08/31 01:46:42;;;;;;;2.93;2.63;;;;;;;;;;5112569;28;20574;-61
2022/08/31 01:49:10;;;;;;;2.70;2.50;;;;;;;;;;5114777;28;20671;-60
2022/08/31 01:51:39;;;;;;;3.30;3.00;;;;;;;;;;5112454;28;20267;-62
2022/08/31 01:54:07;;;;;;;3.30;2.80;;;;;;;;;;5111373;28;20601;-61
2022/08/31 01:56:36;;;;;;;3.10;2.80;;;;;;;;;;5101452;28;20211;-61
2022/08/31 01:59:07;;;;;;;2.60;2.40;;;;;;;;;;5118509;28;20689;-61
2022/08/31 02:01:36;;;;;;;4.63;3.77;;;;;;;;;;5109051;28;20245;-60
2022/08/31 02:04:06;;;;;;;3.60;3.30;;;;;;;;;;5118715;28;20234;-60
2022/08/31 02:06:35;;;;;;;3.30;3.00;;;;;;;;;;5118544;28;20231;-61
2022/08/31 02:09:05;;;;;;;3.60;2.63;;;;;;;;;;5108490;28;20238;-61
2022/08/31 02:11:33;;;;;;;4.10;2.17;;;;;;;;;;5113851;28;20294;-61
2022/08/31 02:14:01;;;;;;;3.00;2.70;;;;;;;;;;5113064;28;20227;-60
2022/08/31 02:16:30;;;;;;;4.97;3.10;;;;;;;;;;5102698;28;20221;-61
2022/08/31 02:18:58;;;;;;;3.43;3.13;;;;;;;;;;5116526;28;20235;-61
2022/08/31 02:21:26;;;;;;;3.00;2.60;;;;;;;;;;5106183;28;20235;-61
2022/08/31 02:23:54;;;;;;;4.67;2.77;;;;;;;;;;5106140;28;20260;-60
2022/08/31 02:26:23;;;;;;;3.33;3.00;;;;;;;;;;5113732;28;20233;-61
2022/08/31 02:28:51;;;;;;;3.27;3.03;;;;;;;;;;5116781;28;20238;-61
2022/08/31 02:31:19;;;;;;;3.00;2.80;;;;;;;;;;5118037;28;20211;-60
2022/08/31 02:33:48;;;;;;;6.23;3.13;;;;;;;;;;5106938;28;20219;-60
2022/08/31 02:36:16;;;;;;;2.93;2.70;;;;;;;;;;5116185;28;20203;-61
2022/08/31 02:38:44;;;;;;;3.17;2.87;;;;;;;;;;5116787;28;20246;-61
2022/08/31 02:41:12;;;;;;;4.17;2.90;;;;;;;;;;5125124;27;20217;-60
2022/08/31 02:43:40;;;;;;;5.30;3.53;;;;;;;;;;5112850;27;20228;-62
2022/08/31 02:46:08;;;;;;;3.20;2.90;;;;;;;;;;5099989;28;20220;-60
2022/08/31 02:48:36;;;;;;;4.10;2.40;;;;;;;;;;5118434;28;20242;-60
2022/08/31 02:51:07;;;;;;;3.67;2.90;;;;;;;;;;5118349;28;20243;-60
2022/08/31 02:53:35;;;;;;;3.47;3.00;;;;;;;;;;5117835;28;20685;-60
2022/08/31 02:56:04;;;;;;;2.90;2.70;;;;;;;;;;5113302;28;20195;-60
2022/08/31 02:58:32;;;;;;;3.73;3.00;;;;;;;;;;5113220;27;20207;-61
2022/08/31 03:00:59;;;;;;;3.07;2.60;;;;;;;;;;5101269;27;20239;-61
2022/08/31 03:03:28;;;;;;;3.37;3.07;;;;;;;;;;5097143;28;20714;-61
2022/08/31 03:05:56;;;;;;;2.83;2.63;;;;;;;;;;5095889;28;20266;-61
2022/08/31 03:08:25;;;;;;;3.00;2.80;;;;;;;;;;5113278;28;20244;-61
2022/08/31 03:10:56;;;;;;;3.00;2.80;;;;;;;;;;5121310;28;20205;-60
2022/08/31 03:13:24;;;;;;;4.13;2.90;;;;;;;;;;5124172;28;20218;-61
2022/08/31 03:15:52;;;;;;;3.90;2.97;;;;;;;;;;5122572;28;20231;-61
2022/08/31 03:18:20;;;;;;;3.80;3.20;;;;;;;;;;5101709;28;20246;-61
2022/08/31 03:20:48;;;;;;;2.97;2.77;;;;;;;;;;5097770;28;20243;-61
2022/08/31 03:23:16;;;;;;;3.37;2.90;;;;;;;;;;5102810;28;20264;-61
2022/08/31 03:25:45;;;;;;;4.10;3.30;;;;;;;;;;5118059;28;20230;-61
2022/08/31 03:28:14;;;;;;;3.03;2.77;;;;;;;;;;5118082;28;20218;-61
2022/08/31 03:30:42;;;;;;;3.80;3.33;;;;;;;;;;5117940;28;20239;-61
2022/08/31 03:33:10;;;;;;;4.40;3.30;;;;;;;;;;5123393;28;20231;-62
2022/08/31 03:35:42;;;;;;;3.23;3.00;;;;;;;;;;5106982;28;20679;-62
2022/08/31 03:38:11;;;;;;;3.50;3.20;;;;;;;;;;5105065;28;20198;-63
2022/08/31 03:40:39;;;;;;;3.17;2.80;;;;;;;;;;5103868;28;20201;-62
2022/08/31 03:43:10;;;;;;;3.40;3.10;;;;;;;;;;5125529;28;20192;-63
2022/08/31 03:45:39;;;;;;;3.80;3.40;;;;;;;;;;5125969;28;20217;-63
2022/08/31 03:48:07;;;;;;;4.17;3.03;;;;;;;;;;5117524;28;20238;-63
2022/08/31 03:50:40;;;;;;;3.00;2.80;;;;;;;;;;5117934;28;20210;-63
2022/08/31 03:53:08;;;;;;;3.40;2.97;;;;;;;;;;5117360;28;20266;-62
2022/08/31 03:55:39;;;;;;;2.97;2.70;;;;;;;;;;5120720;28;20243;-63
2022/08/31 03:58:09;;;;;;;3.67;3.23;;;;;;;;;;5113859;27;20235;-62
2022/08/31 04:00:37;;;;;;;3.57;3.13;;;;;;;;;;5109668;28;20230;-62
2022/08/31 04:03:05;;;;;;;3.97;3.43;;;;;;;;;;5113481;27;20241;-62
2022/08/31 04:05:34;;;;;;;3.93;3.27;;;;;;;;;;5127274;27;20222;-62
2022/08/31 04:14:47;;;;;;;3.87;3.47;;;;;;;;;;5124552;27;20254;-63
2022/08/31 04:17:15;;;;;;;3.87;3.47;;;;;;;;;;5131502;27;20205;-66
2022/08/31 04:19:46;;;;;;;3.20;2.90;;;;;;;;;;5125880;27;20210;-64
2022/08/31 04:22:14;;;;;;;4.70;3.67;;;;;;;;;;5130573;27;20242;-66
2022/08/31 04:24:42;;;;;;;4.50;3.50;;;;;;;;;;5127116;27;20272;-66
2022/08/31 04:27:10;;;;;;;3.30;3.03;;;;;;;;;;5100533;28;20262;-66
2022/08/31 04:29:39;;;;;;;3.40;3.10;;;;;;;;;;5100372;28;20235;-66
2022/08/31 04:32:08;;;;;;;3.97;2.87;;;;;;;;;;5100434;28;20214;-65
2022/08/31 04:34:36;;;;;;;3.73;3.20;;;;;;;;;;5100228;28;20664;-66
2022/08/31 04:37:07;;;;;;;7.37;3.37;;;;;;;;;;5110141;28;20645;-66
2022/08/31 04:39:36;;;;;;;4.03;3.20;;;;;;;;;;5117381;28;20207;-66
2022/08/31 04:42:18;;;;;;;7.20;3.60;;;;;;;;;;5113398;28;20233;-66
2022/08/31 04:44:45;;;;;;;3.47;3.17;;;;;;;;;;5120465;28;20260;-66
2022/08/31 04:47:15;;;;;;;3.70;3.30;;;;;;;;;;5106865;28;20232;-65
2022/08/31 04:49:43;;;;;;;5.70;3.03;;;;;;;;;;5100400;28;20246;-66
2022/08/31 04:52:11;;;;;;;3.60;3.30;;;;;;;;;;5115061;27;20257;-65
2022/08/31 04:54:39;;;;;;;3.93;3.00;;;;;;;;;;5130761;27;20218;-65
2022/08/31 04:57:07;;;;;;;4.47;3.53;;;;;;;;;;5128107;27;20202;-66
2022/08/31 04:59:35;;;;;;;3.40;3.10;;;;;;;;;;5128969;27;20241;-65
2022/08/31 05:02:03;;;;;;;3.37;2.87;;;;;;;;;;5124454;27;20202;-65
2022/08/31 05:04:33;;;;;;;3.57;3.00;;;;;;;;;;5114022;27;20228;-65
2022/08/31 05:07:01;;;;;;;4.80;3.17;;;;;;;;;;5099245;28;20282;-64
2022/08/31 05:09:29;;;;;;;3.73;3.43;;;;;;;;;;5123792;27;20224;-65
2022/08/31 05:11:56;;;;;;;4.60;3.33;;;;;;;;;;5127690;27;20260;-66
2022/08/31 05:14:25;;;;;;;3.43;3.13;;;;;;;;;;5123716;27;20592;-65
2022/08/31 05:16:53;;;;;;;4.20;3.30;;;;;;;;;;5125808;27;20223;-65
2022/08/31 05:19:21;;;;;;;3.70;3.40;;;;;;;;;;5112839;27;20223;-65
2022/08/31 05:21:50;;;;;;;4.67;3.73;;;;;;;;;;5109663;27;20572;-64
2022/08/31 05:24:19;;;;;;;4.17;3.60;;;;;;;;;;5103461;28;20279;-65
2022/08/31 05:26:48;;;;;;;4.27;3.33;;;;;;;;;;5116273;28;20257;-66
2022/08/31 05:29:16;;;;;;;5.07;3.80;;;;;;;;;;5111192;28;20202;-65
2022/08/31 05:31:45;;;;;;;3.67;3.37;;;;;;;;;;5119138;28;20242;-65
2022/08/31 05:34:19;;;;;;;3.73;3.43;;;;;;;;;;5118803;27;20223;-64
2022/08/31 05:36:49;;;;;;;4.30;3.90;;;;;;;;;;5118987;27;20245;-65
2022/08/31 05:39:19;;;;;;;4.73;3.77;;;;;;;;;;5118472;28;20232;-65
2022/08/31 05:41:47;;;;;;;4.83;3.67;;;;;;;;;;5107079;28;20209;-65
2022/08/31 05:44:15;;;;;;;5.67;4.23;;;;;;;;;;5114837;28;20251;-65
2022/08/31 05:46:43;;;;;;;5.07;3.70;;;;;;;;;;5113277;27;20695;-65
2022/08/31 05:49:24;;;;;;;8.70;5.47;;;;;;;;;;5122115;27;20244;-65
2022/08/31 05:51:55;;;;;;;6.87;4.60;;;;;;;;;;5119216;27;20947;-65
2022/08/31 05:54:25;;;;;;;6.37;4.40;;;;;;;;;;5128362;27;20245;-65
2022/08/31 05:56:53;;;;;;;6.30;4.17;;;;;;;;;;5121980;27;20233;-65
2022/08/31 05:59:27;;;;;;;5.40;4.00;;;;;;;;;;5120378;27;20205;-62
2022/08/31 06:01:56;;;;;;;5.43;4.37;;;;;;;;;;5125013;27;20193;-62
2022/08/31 06:04:24;;;;;;;5.27;4.20;;;;;;;;;;5113988;27;20937;-62
2022/08/31 06:06:52;;;;;;;4.57;3.90;;;;;;;;;;5119049;28;20223;-59
2022/08/31 06:09:21;;;;;;;4.93;4.43;;;;;;;;;;5118572;28;20657;-60
2022/08/31 06:11:51;;;;;;;6.40;4.50;;;;;;;;;;5118700;28;20207;-60
2022/08/31 06:14:21;;;;;;;4.53;4.13;;;;;;;;;;5117452;28;20228;-60
2022/08/31 06:16:50;;;;;;;7.60;4.23;;;;;;;;;;5114599;28;20346;-60
2022/08/31 06:19:19;;;;;;;7.53;4.43;;;;;;;;;;5116125;28;20703;-60
2022/08/31 06:21:50;;;;;;;4.30;3.87;;;;;;;;;;5103910;28;20236;-60
2022/08/31 06:24:18;;;;;;;5.47;4.30;;;;;;;;;;5102613;28;20224;-60
2022/08/31 06:26:51;;;;;;;4.13;3.73;;;;;;;;;;5096659;28;20233;-60
2022/08/31 06:29:25;;;;;;;4.87;4.37;;;;;;;;;;5097057;28;20220;-60
2022/08/31 06:31:54;;;;;;;5.33;3.77;;;;;;;;;;5097733;28;20274;-60
2022/08/31 06:34:22;;;;;;;5.60;4.13;;;;;;;;;;5097674;28;20297;-59
2022/08/31 06:36:50;;;;;;;7.97;4.07;;;;;;;;;;5105868;28;20648;-60
2022/08/31 06:39:19;;;;;;;4.30;3.90;;;;;;;;;;5114967;28;20212;-60
2022/08/31 06:41:51;;;;;;;4.00;3.40;;;;;;;;;;5106775;28;20208;-60
2022/08/31 06:44:21;;;;;;;5.97;4.50;;;;;;;;;;5117703;28;20266;-59
2022/08/31 06:46:52;;;;;;;5.33;3.93;;;;;;;;;;5108294;28;20201;-59
2022/08/31 06:49:21;;;;;;;4.40;4.00;;;;;;;;;;5097603;28;20212;-60
2022/08/31 06:51:52;;;;;;;5.03;3.50;;;;;;;;;;5097290;28;20260;-60
2022/08/31 06:54:20;;;;;;;6.33;4.30;;;;;;;;;;5115333;28;20227;-59
2022/08/31 06:56:57;;;;;;;5.27;3.97;;;;;;;;;;5110738;28;20654;-62
2022/08/31 06:59:25;;;;;;;4.67;4.00;;;;;;;;;;5117930;28;20215;-61
2022/08/31 07:01:57;;;;;;;4.80;3.23;;;;;;;;;;5117873;28;20354;-59
2022/08/31 07:04:26;;;;;;;4.00;3.43;;;;;;;;;;5118020;28;20225;-60
2022/08/31 07:06:54;;;;;;;6.23;3.67;;;;;;;;;;5118021;28;20263;-60
2022/08/31 07:09:22;;;;;;;6.33;3.30;;;;;;;;;;5117863;28;20209;-59
2022/08/31 07:11:52;;;;;;;3.93;3.27;;;;;;;;;;5114631;28;20206;-60
2022/08/31 07:14:22;;;;;;;6.50;5.20;;;;;;;;;;5117337;28;20228;-59
2022/08/31 07:16:50;;;;;;;3.60;3.20;;;;;;;;;;5117820;28;20211;-60
2022/08/31 07:19:21;;;;;;;4.00;3.60;;;;;;;;;;5117847;28;20220;-59
2022/08/31 07:21:50;;;;;;;5.70;3.30;;;;;;;;;;5117750;28;20204;-60
2022/08/31 07:24:21;;;;;;;4.90;3.70;;;;;;;;;;5106771;28;20253;-60
2022/08/31 07:26:52;;;;;;;4.73;3.43;;;;;;;;;;5097131;28;20272;-59
2022/08/31 07:29:21;;;;;;;3.63;3.33;;;;;;;;;;5113214;27;20206;-60
2022/08/31 07:31:51;;;;;;;3.63;3.33;;;;;;;;;;5131774;27;20205;-59
2022/08/31 07:34:24;;;;;;;3.00;2.70;;;;;;;;;;5128121;27;20225;-61
2022/08/31 07:42:29;;;;;;;3.90;3.27;;;;;;;;;;5129807;27;20210;-61
2022/08/31 07:44:58;;;;;;;3.63;3.30;;;;;;;;;;5127028;27;20222;-62
2022/08/31 07:47:28;;;;;;;3.20;2.93;;;;;;;;;;5126876;27;20228;-61
2022/08/31 07:50:00;;;;;;;4.07;3.50;;;;;;;;;;5128432;27;20233;-61
2022/08/31 07:52:29;;;;;;;7.27;3.50;;;;;;;;;;5124005;27;20597;-61
2022/08/31 07:55:06;;;;;;;4.83;3.40;;;;;;;;;;5101001;28;20228;-62
2022/08/31 07:57:36;;;;;;;4.17;3.10;;;;;;;;;;5100852;28;20208;-61
2022/08/31 08:00:07;;;;;;;3.57;3.30;;;;;;;;;;5100696;28;20565;-62
2022/08/31 08:02:38;;;;;;;4.73;3.57;;;;;;;;;;5103406;28;20210;-61
2022/08/31 08:05:08;;;;;;;4.80;3.37;;;;;;;;;;5121312;28;20240;-62
2022/08/31 08:07:37;;;;;;;4.63;3.50;;;;;;;;;;5121204;28;20750;-62
2022/08/31 08:10:08;;;;;;;6.37;3.00;;;;;;;;;;5122356;27;20209;-61
2022/08/31 08:12:36;;;;;;;5.00;3.50;;;;;;;;;;5127945;27;20234;-62
2022/08/31 08:15:04;;;;;;;4.37;3.27;;;;;;;;;;5124029;27;20765;-62
2022/08/31 08:17:32;;;;;;;6.60;3.60;;;;;;;;;;5131869;27;20196;-61
2022/08/31 08:20:01;;;;;;;4.03;3.70;;;;;;;;;;5128588;27;20206;-62
2022/08/31 08:22:32;;;;;;;4.30;3.57;;;;;;;;;;5132924;27;20235;-62
2022/08/31 08:25:20;;;;;;;3.60;3.30;;;;;;;;;;5120721;28;20263;-62
2022/08/31 08:27:54;;;;;;;3.40;3.10;;;;;;;;;;5121026;28;20226;-62
2022/08/31 08:30:25;;;;;;;3.70;3.40;;;;;;;;;;5120445;28;20207;-62
2022/08/31 08:32:53;;;;;;;4.27;3.87;;;;;;;;;;5120592;28;20207;-62
2022/08/31 08:35:22;;;;;;;4.80;3.50;;;;;;;;;;5120629;28;20568;-60
2022/08/31 08:37:51;;;;;;;5.87;3.20;;;;;;;;;;5109788;28;20205;-62
2022/08/31 08:40:31;;;;;;;3.60;3.30;;;;;;;;;;5109473;28;20206;-59
2022/08/31 08:43:01;;;;;;;3.70;3.40;;;;;;;;;;5118423;28;20629;-59
2022/08/31 08:45:30;;;;;;;3.60;3.30;;;;;;;;;;5120045;28;20608;-62
2022/08/31 08:47:58;;;;;;;5.47;4.97;;;;;;;;;;5107033;28;20242;-62
2022/08/31 08:50:28;;;;;;;3.73;3.43;;;;;;;;;;5099856;28;20609;-62
2022/08/31 08:53:00;;;;;;;4.10;3.33;;;;;;;;;;5105978;28;20376;-62
2022/08/31 08:55:33;;;;;;;3.30;3.00;;;;;;;;;;5115895;28;20216;-62
2022/08/31 08:58:04;;;;;;;6.73;3.30;;;;;;;;;;5120625;28;20200;-59
2022/08/31 09:00:33;;;;;;;3.60;3.30;;;;;;;;;;5119863;28;20265;-62
2022/08/31 09:03:06;;;;;;;3.30;3.00;;;;;;;;;;5120206;28;20609;-61
2022/08/31 09:05:47;;;;;;;4.57;3.53;;;;;;;;;;5117939;27;20672;-62
2022/08/31 09:08:27;;;;;;;4.40;3.00;;;;;;;;;;5099648;28;20225;-62
2022/08/31 09:11:00;;;;;;;4.60;3.13;;;;;;;;;;5104549;28;20208;-61
2022/08/31 09:13:35;;;;;;;4.97;3.70;;;;;;;;;;5120010;28;20254;-61
2022/08/31 09:16:09;;;;;;;3.13;2.93;;;;;;;;;;5119832;28;20206;-60
2022/08/31 09:18:44;;;;;;;4.17;3.37;;;;;;;;;;5119522;28;20209;-60
2022/08/31 09:21:19;;;;;;;4.43;3.93;;;;;;;;;;5119804;28;20213;-60
2022/08/31 09:23:53;;;;;;;3.83;3.40;;;;;;;;;;5113039;28;20229;-60
2022/08/31 09:26:26;;;;;;;4.07;3.20;;;;;;;;;;5098978;28;20617;-60
2022/08/31 09:28:55;;;;;;;3.90;3.23;;;;;;;;;;5109238;28;20220;-60
2022/08/31 09:31:33;;;;;;;3.87;3.47;;;;;;;;;;5114608;28;20226;-61
2022/08/31 09:34:02;;;;;;;4.50;3.40;;;;;;;;;;5116228;28;20302;-61
2022/08/31 09:36:39;;;;;;;3.17;2.87;;;;;;;;;;5118930;28;20217;-60
2022/08/31 09:39:19;;;;;;;4.57;3.47;;;;;;;;;;5119550;28;20570;-60
2022/08/31 09:41:49;;;;;;;4.07;3.30;;;;;;;;;;5107328;28;20200;-60
2022/08/31 09:44:26;;;;;;;4.03;3.60;;;;;;;;;;5115825;28;20252;-60
2022/08/31 09:46:59;;;;;;;4.40;3.30;;;;;;;;;;5116499;28;20204;-61
2022/08/31 09:49:31;;;;;;;3.30;3.10;;;;;;;;;;5117852;28;20221;-60
2022/08/31 09:55:12;;;;;;;5.10;3.50;;;;;;;;;;5104338;28;20240;-60
2022/08/31 09:55:20;;;;;;;3.80;3.33;;;;;;;;;;5110342;28;20211;-60
2022/08/31 09:57:53;;;;;;;5.33;3.17;;;;;;;;;;5098020;28;20530;-60
2022/08/31 10:00:30;;;;;;;3.53;3.23;;;;;;;;;;5098331;28;20202;-60
2022/08/31 10:03:07;;;;;;;4.13;3.73;;;;;;;;;;5112491;28;20207;-60
2022/08/31 10:05:39;;;;;;;3.17;2.83;;;;;;;;;;5119039;28;20259;-60
2022/08/31 10:08:12;;;;;;;3.43;3.13;;;;;;;;;;5119174;28;20331;-60
2022/08/31 10:10:49;;;;;;;4.20;3.57;;;;;;;;;;5119045;28;20214;-61
2022/08/31 10:13:18;;;;;;;4.13;3.73;;;;;;;;;;5118789;28;20685;-61
2022/08/31 10:15:51;;;;;;;3.93;3.50;;;;;;;;;;5118529;28;20211;-60
2022/08/31 10:18:22;;;;;;;3.60;3.30;;;;;;;;;;5118369;28;20203;-60
2022/08/31 10:20:55;;;;;;;3.90;3.60;;;;;;;;;;5117858;28;20230;-61
2022/08/31 10:23:32;;;;;;;4.90;3.63;;;;;;;;;;5107787;28;20229;-58
2022/08/31 10:26:04;;;;;;;4.13;3.10;;;;;;;;;;5116505;28;20204;-58
2022/08/31 10:28:36;;;;;;;3.87;3.13;;;;;;;;;;5107362;28;20250;-58
2022/08/31 10:31:06;;;;;;;3.60;3.30;;;;;;;;;;5116852;28;20208;-59
2022/08/31 10:36:19;;;;;;;3.80;3.50;;;;;;;;;;5117181;28;20799;-60
2022/08/31 10:38:48;;;;;;;4.47;3.20;;;;;;;;;;5118506;28;20660;-59
2022/08/31 10:41:22;;;;;;;4.23;3.10;;;;;;;;;;5104620;28;20201;-59
2022/08/31 10:43:54;;;;;;;6.10;3.20;;;;;;;;;;5118331;28;20225;-58
2022/08/31 10:46:22;;;;;;;3.47;3.13;;;;;;;;;;5112633;28;20211;-58
2022/08/31 10:48:53;;;;;;;3.43;3.13;;;;;;;;;;5098039;28;20203;-59
2022/08/31 10:51:26;;;;;;;4.17;3.43;;;;;;;;;;5097834;28;20212;-59
2022/08/31 10:54:01;;;;;;;4.40;3.13;;;;;;;;;;5097701;28;20285;-58
2022/08/31 10:56:38;;;;;;;3.17;2.90;;;;;;;;;;5097779;28;20257;-59
2022/08/31 10:59:10;;;;;;;3.63;2.73;;;;;;;;;;5095659;28;20238;-59
2022/08/31 11:01:43;;;;;;;3.40;3.07;;;;;;;;;;5095995;28;20220;-59
2022/08/31 11:04:22;;;;;;;5.33;3.13;;;;;;;;;;5095448;28;20225;-59
2022/08/31 11:06:58;;;;;;;4.23;3.33;;;;;;;;;;5095983;28;20205;-59
2022/08/31 11:09:31;;;;;;;4.97;3.30;;;;;;;;;;5095684;28;20225;-59
2022/08/31 11:12:03;;;;;;;3.90;3.00;;;;;;;;;;5095558;28;20745;-58
2022/08/31 11:14:44;;;;;;;5.47;2.93;;;;;;;;;;5096169;28;20668;-59
2022/08/31 11:17:21;;;;;;;5.10;3.20;;;;;;;;;;5097791;28;20208;-59
2022/08/31 11:19:58;;;;;;;4.40;3.27;;;;;;;;;;5097520;28;20545;-59
2022/08/31 11:22:36;;;;;;;4.73;2.90;;;;;;;;;;5111851;28;20212;-59
2022/08/31 11:25:13;;;;;;;3.47;3.10;;;;;;;;;;5108482;28;20275;-59
2022/08/31 11:27:44;;;;;;;6.13;3.67;;;;;;;;;;5115990;28;20259;-59
2022/08/31 11:30:23;;;;;;;3.60;3.30;;;;;;;;;;5116746;28;20261;-59
2022/08/31 11:32:52;;;;;;;2.73;2.53;;;;;;;;;;5112558;28;20245;-59
2022/08/31 11:35:39;;;;;;;6.13;3.07;;;;;;;;;;5099167;28;20213;-59
2022/08/31 11:38:34;;;;;;;4.93;2.97;;;;;;;;;;5115906;28;20201;-59
2022/08/31 11:41:04;;;;;;;4.40;3.13;;;;;;;;;;5112748;28;20197;-59
2022/08/31 11:43:56;;;;;;;5.97;2.90;;;;;;;;;;5109083;28;20232;-61
2022/08/31 11:46:58;;;;;;;5.60;3.30;;;;;;;;;;5096515;28;20220;-61
2022/08/31 11:49:45;;;;;;;3.67;2.90;;;;;;;;;;5044120;28;20211;-61
2022/08/31 11:52:41;;;;;;;6.87;3.00;;;;;;;;;;5111930;28;20237;-62
2022/08/31 11:55:25;;;;;;;4.50;2.90;;;;;;;;;;5078730;28;20277;-62
2022/08/31 11:58:10;;;;;;;4.37;2.83;;;;;;;;;;5108458;28;20209;-61
2022/08/31 12:00:42;;;;;;;6.53;3.50;;;;;;;;;;5110524;28;20243;-62
2022/08/31 12:03:30;;;;;;;4.33;2.90;;;;;;;;;;5117443;28;20227;-61
2022/08/31 12:06:00;;;;;;;5.17;3.50;;;;;;;;;;5112360;28;20217;-62
2022/08/31 12:08:31;;;;;;;7.50;3.37;;;;;;;;;;5110270;28;20203;-61
2022/08/31 12:11:02;;;;;;;4.90;3.23;;;;;;;;;;5113899;28;20263;-61
2022/08/31 12:13:44;;;;;;;5.27;3.63;;;;;;;;;;5112995;28;20235;-61
2022/08/31 12:16:36;;;;;;;3.60;3.13;;;;;;;;;;5117551;28;20694;-62
2022/08/31 12:19:12;;;;;;;3.67;2.67;;;;;;;;;;5129791;27;20236;-62
2022/08/31 12:24:36;;;;;;;4.33;3.10;;;;;;;;;;5117297;28;20256;-62
2022/08/31 12:27:24;;;;;;;3.07;2.83;;;;;;;;;;5123554;27;20202;-61
2022/08/31 12:30:06;;;;;;;4.67;3.20;;;;;;;;;;5107471;28;20270;-62
2022/08/31 12:32:35;;;;;;;4.40;3.30;;;;;;;;;;5107824;27;20617;-62
2022/08/31 12:35:10;;;;;;;3.30;3.00;;;;;;;;;;5123735;27;20255;-61
2022/08/31 12:37:39;;;;;;;7.50;2.90;;;;;;;;;;5103166;28;20573;-61
2022/08/31 12:40:13;;;;;;;5.80;3.27;;;;;;;;;;5105670;28;20666;-61
2022/08/31 12:42:47;;;;;;;8.13;3.00;;;;;;;;;;5116200;28;20206;-61
2022/08/31 12:45:15;;;;;;;5.07;2.87;;;;;;;;;;5116548;28;20201;-61
2022/08/31 12:47:48;;;;;;;3.47;3.17;;;;;;;;;;5109616;28;20545;-61
2022/08/31 12:50:18;;;;;;;8.37;3.30;;;;;;;;;;5115110;28;20220;-61
2022/08/31 12:53:04;;;;;;;4.00;3.60;;;;;;;;;;5111235;28;20235;-61
2022/08/31 12:55:38;;;;;;;3.67;3.30;;;;;;;;;;5108204;28;20270;-59
2022/08/31 12:58:14;;;;;;;4.77;3.50;;;;;;;;;;5120352;28;20717;-59
2022/08/31 13:00:42;;;;;;;2.83;2.63;;;;;;;;;;5114494;28;20674;-59
2022/08/31 13:03:16;;;;;;;7.40;2.70;;;;;;;;;;5113661;28;20589;-59
2022/08/31 13:06:00;;;;;;;5.37;3.17;;;;;;;;;;5117740;28;20614;-59
2022/08/31 13:08:28;;;;;;;3.53;3.23;;;;;;;;;;5120393;28;20206;-59
2022/08/31 13:11:11;;;;;;;3.50;3.20;;;;;;;;;;5120554;28;20262;-59
2022/08/31 13:13:40;;;;;;;3.40;3.10;;;;;;;;;;5120756;28;20224;-58
2022/08/31 13:16:08;;;;;;;5.57;3.30;;;;;;;;;;5121206;28;20256;-58
2022/08/31 13:18:36;;;;;;;5.63;3.10;;;;;;;;;;5121017;28;20205;-58
2022/08/31 13:21:05;;;;;;;2.80;2.50;;;;;;;;;;5121233;28;20197;-58
2022/08/31 13:23:37;;;;;;;4.53;2.80;;;;;;;;;;5117370;28;20235;-58
2022/08/31 13:26:19;;;;;;;4.03;3.33;;;;;;;;;;5111144;28;20280;-58
2022/08/31 13:28:51;;;;;;;5.20;3.20;;;;;;;;;;5119895;28;20284;-58
2022/08/31 13:31:21;;;;;;;5.00;3.17;;;;;;;;;;5120588;28;20268;-58
2022/08/31 13:33:50;;;;;;;3.17;2.90;;;;;;;;;;5120504;28;20289;-58
2022/08/31 13:36:29;;;;;;;3.53;2.58;;;;;;;;;;5106419;28;20203;-59
2022/08/31 13:38:57;;;;;;;3.58;3.05;;;;;;;;;;5109875;28;20204;-58
2022/08/31 13:41:28;;;;;;;4.13;3.08;;;;;;;;;;5118102;28;20208;-58
2022/08/31 13:44:00;;;;;;;4.85;3.03;;;;;;;;;;5119945;28;20710;-58
2022/08/31 13:46:31;;;;;;;4.30;2.85;;;;;;;;;;5120213;28;20272;-58
2022/08/31 13:49:20;;;;;;;5.82;2.92;;;;;;;;;;5120350;28;20260;-58
2022/08/31 13:51:48;;;;;;;3.60;3.30;;;;;;;;;;5120473;28;20222;-58
2022/08/31 13:54:25;;;;;;;5.00;3.50;;;;;;;;;;5120466;28;20285;-58
2022/08/31 13:56:58;;;;;;;6.40;3.40;;;;;;;;;;5120505;28;20206;-58
2022/08/31 13:59:34;;;;;;;2.55;2.35;;;;;;;;;;5105259;28;20208;-59
2022/08/31 14:02:04;;;;;;;4.45;3.10;;;;;;;;;;5117984;28;20208;-60
2022/08/31 14:04:45;;;;;;;2.67;2.47;;;;;;;;;;5118249;28;20238;-60
2022/08/31 14:07:15;;;;;;;3.37;3.07;;;;;;;;;;5097692;28;20237;-60
2022/08/31 14:09:44;;;;;;;3.20;2.90;;;;;;;;;;5115905;28;20637;-60
2022/08/31 14:12:33;;;;;;;3.47;3.10;;;;;;;;;;5111115;28;20224;-60
2022/08/31 14:15:07;;;;;;;3.85;2.75;;;;;;;;;;5116558;28;20278;-60
2022/08/31 14:17:39;;;;;;;4.70;3.78;;;;;;;;;;5116828;28;20589;-60
2022/08/31 14:20:32;;;;;;;3.00;2.70;;;;;;;;;;5116917;28;20299;-60
2022/08/31 14:23:33;;;;;;;4.95;2.83;;;;;;;;;;5117146;28;20734;-60
2022/08/31 14:26:03;;;;;;;3.35;3.00;;;;;;;;;;5048831;28;20206;-61
2022/08/31 14:28:42;;;;;;;6.15;3.28;;;;;;;;;;5054127;28;20244;-61
2022/08/31 14:31:20;;;;;;;8.15;3.05;;;;;;;;;;5087686;28;20270;-61
2022/08/31 14:33:54;;;;;;;4.47;3.00;;;;;;;;;;5115995;28;20237;-61
2022/08/31 14:36:24;;;;;;;4.22;3.00;;;;;;;;;;5098838;28;20269;-61
2022/08/31 14:38:53;;;;;;;4.35;3.30;;;;;;;;;;5095493;28;20637;-61
2022/08/31 14:41:26;;;;;;;3.27;2.80;;;;;;;;;;5101179;28;20290;-60
2022/08/31 14:43:57;;;;;;;3.23;2.90;;;;;;;;;;5117399;28;20723;-61
2022/08/31 14:46:26;;;;;;;3.93;3.00;;;;;;;;;;5118441;28;20208;-60
2022/08/31 14:48:56;;;;;;;4.20;3.03;;;;;;;;;;5118279;28;20721;-61
2022/08/31 14:51:26;;;;;;;3.80;2.95;;;;;;;;;;5118218;28;20254;-61
2022/08/31 14:53:55;;;;;;;6.78;3.58;;;;;;;;;;5118022;28;20670;-61
2022/08/31 14:56:25;;;;;;;3.20;2.90;;;;;;;;;;5118464;28;20217;-61
2022/08/31 14:58:56;;;;;;;3.35;2.88;;;;;;;;;;5117900;28;20203;-61
2022/08/31 15:01:25;;;;;;;2.90;2.70;;;;;;;;;;5118065;28;20236;-61
2022/08/31 15:03:54;;;;;;;4.07;2.60;;;;;;;;;;5112297;28;20218;-61
2022/08/31 15:06:26;;;;;;;3.10;2.63;;;;;;;;;;5118239;28;20337;-61
2022/08/31 15:08:54;;;;;;;2.93;2.73;;;;;;;;;;5118147;28;20239;-61
2022/08/31 15:11:22;;;;;;;4.13;2.78;;;;;;;;;;5117656;28;20311;-61
2022/08/31 15:13:50;;;;;;;3.57;3.03;;;;;;;;;;5117951;28;20255;-61
2022/08/31 15:16:20;;;;;;;3.97;3.08;;;;;;;;;;5118296;28;20210;-60
2022/08/31 15:18:53;;;;;;;3.38;2.90;;;;;;;;;;5118135;28;20204;-61
2022/08/31 15:21:21;;;;;;;3.38;2.97;;;;;;;;;;5110660;28;20657;-61
2022/08/31 15:23:49;;;;;;;3.10;2.80;;;;;;;;;;5111392;28;20256;-61
2022/08/31 15:26:20;;;;;;;2.80;2.60;;;;;;;;;;5097706;28;20238;-61
2022/08/31 15:28:51;;;;;;;5.18;4.05;;;;;;;;;;5097278;28;20662;-60
2022/08/31 15:31:22;;;;;;;4.63;3.70;;;;;;;;;;5097875;28;20212;-61
2022/08/31 15:33:54;;;;;;;3.45;2.90;;;;;;;;;;5101731;28;20226;-61
2022/08/31 15:36:27;;;;;;;3.33;2.90;;;;;;;;;;5117788;28;20204;-61